createdAt,value
2018-01-11T00:00:46.536Z,8.60
2018-01-11T00:03:13.232Z,8.80
2018-01-11T00:05:39.929Z,8.33
2018-01-11T00:08:06.629Z,8.00
2018-01-11T00:10:33.306Z,8.20
2018-01-11T00:13:00.004Z,7.80
2018-01-11T00:15:26.718Z,7.90
2018-01-11T00:17:53.440Z,7.87
2018-01-11T00:20:20.197Z,8.43
2018-01-11T00:22:46.898Z,8.50
2018-01-11T00:25:13.597Z,8.43
2018-01-11T00:27:40.293Z,8.23
2018-01-11T00:30:06.992Z,9.17
2018-01-11T00:32:33.672Z,8.33
2018-01-11T00:35:00.385Z,7.80
2018-01-11T00:37:27.097Z,8.40
2018-01-11T00:39:53.794Z,7.90
2018-01-11T00:42:20.505Z,8.00
2018-01-11T00:44:48.949Z,7.13
2018-01-11T00:47:15.807Z,7.43
2018-01-11T00:49:42.519Z,6.97
2018-01-11T00:52:09.402Z,6.97
2018-01-11T00:54:36.130Z,6.30
2018-01-11T00:57:02.830Z,6.77
2018-01-11T00:59:29.587Z,6.50
2018-01-11T01:01:56.283Z,6.90
2018-01-11T01:04:22.968Z,6.77
2018-01-11T01:06:49.684Z,6.77
2018-01-11T01:09:16.386Z,7.40
2018-01-11T01:11:43.088Z,6.80
2018-01-11T01:14:09.807Z,7.70
2018-01-11T01:16:36.710Z,8.10
2018-01-11T01:19:03.423Z,7.13
2018-01-11T01:21:30.121Z,6.93
2018-01-11T01:23:56.833Z,8.17
2018-01-11T01:26:23.529Z,6.70
2018-01-11T01:28:50.280Z,7.00
2018-01-11T01:31:16.952Z,6.83
2018-01-11T01:33:43.639Z,6.40
2018-01-11T01:36:10.424Z,7.37
2018-01-11T01:38:37.160Z,6.53
2018-01-11T01:41:03.866Z,5.43
2018-01-11T01:43:30.567Z,5.07
2018-01-11T01:45:57.271Z,6.03
2018-01-11T01:48:29.685Z,4.67
2018-01-11T01:50:56.389Z,5.10
2018-01-11T01:53:23.075Z,4.80
2018-01-11T01:55:49.802Z,4.80
2018-01-11T01:58:16.557Z,4.90
2018-01-11T02:00:43.266Z,4.50
2018-01-11T02:03:09.950Z,5.30
2018-01-11T02:05:36.685Z,4.43
2018-01-11T02:08:03.407Z,4.23
2018-01-11T02:10:30.092Z,4.77
2018-01-11T02:12:56.822Z,3.90
2018-01-11T02:15:23.529Z,4.13
2018-01-11T02:17:50.278Z,3.83
2018-01-11T02:20:16.977Z,3.83
2018-01-11T02:22:44.524Z,4.93
2018-01-11T02:25:11.251Z,4.20
2018-01-11T02:27:37.958Z,3.50
2018-01-11T02:30:04.659Z,3.60
2018-01-11T02:32:31.330Z,2.83
2018-01-11T02:34:58.042Z,4.17
2018-01-11T02:37:25.144Z,3.43
2018-01-11T02:39:51.828Z,3.37
2018-01-11T02:42:18.539Z,4.17
2018-01-11T02:44:45.258Z,3.43
2018-01-11T02:47:11.990Z,3.60
2018-01-11T02:49:39.520Z,3.80
2018-01-11T02:52:06.224Z,3.70
2018-01-11T02:54:32.938Z,3.63
2018-01-11T02:56:59.661Z,4.40
2018-01-11T02:59:26.384Z,3.73
2018-01-11T03:01:53.051Z,3.83
2018-01-11T03:04:19.771Z,3.70
2018-01-11T03:06:46.476Z,4.23
2018-01-11T03:09:13.180Z,3.50
2018-01-11T03:11:39.850Z,4.50
2018-01-11T03:14:06.545Z,4.03
2018-01-11T03:16:33.252Z,3.80
2018-01-11T03:18:59.939Z,3.07
2018-01-11T03:21:26.635Z,4.30
2018-01-11T03:23:53.310Z,3.90
2018-01-11T03:26:20.025Z,4.30
2018-01-11T03:28:46.688Z,4.27
2018-01-11T03:31:13.392Z,4.60
2018-01-11T03:33:40.091Z,4.17
2018-01-11T03:36:06.803Z,4.63
2018-01-11T03:38:33.507Z,5.00
2018-01-11T03:41:00.207Z,4.47
2018-01-11T03:43:26.952Z,4.60
2018-01-11T03:45:53.634Z,4.57
2018-01-11T03:48:20.361Z,4.03
2018-01-11T03:50:47.073Z,4.10
2018-01-11T03:53:13.771Z,4.40
2018-01-11T03:55:40.510Z,4.60
2018-01-11T03:58:08.010Z,4.33
2018-01-11T04:00:34.710Z,3.97
2018-01-11T04:03:01.447Z,3.50
2018-01-11T04:05:28.162Z,2.93
2018-01-11T04:07:54.846Z,3.43
2018-01-11T04:10:21.546Z,3.17
2018-01-11T04:12:48.287Z,3.00
2018-01-11T04:15:14.997Z,2.90
2018-01-11T04:17:41.705Z,2.80
2018-01-11T04:20:08.408Z,3.53
2018-01-11T04:22:35.224Z,3.53
2018-01-11T04:25:01.882Z,3.40
2018-01-11T04:27:28.577Z,3.37
2018-01-11T04:29:55.273Z,3.23
2018-01-11T04:32:21.999Z,4.00
2018-01-11T04:34:48.708Z,6.80
2018-01-11T04:37:15.424Z,5.73
2018-01-11T04:39:42.115Z,3.43
2018-01-11T04:42:08.794Z,4.23
2018-01-11T04:44:35.504Z,3.87
2018-01-11T04:47:02.216Z,3.27
2018-01-11T04:49:28.975Z,3.67
2018-01-11T04:51:55.653Z,3.53
2018-01-11T04:54:22.334Z,3.53
2018-01-11T04:56:49.030Z,3.77
2018-01-11T04:59:15.709Z,3.60
2018-01-11T05:01:42.407Z,3.87
2018-01-11T05:04:09.085Z,4.00
2018-01-11T05:06:35.812Z,3.47
2018-01-11T05:09:02.515Z,3.60
2018-01-11T05:11:29.244Z,3.40
2018-01-11T05:13:55.943Z,3.50
2018-01-11T05:16:22.692Z,3.90
2018-01-11T05:18:49.358Z,3.77
2018-01-11T05:21:16.085Z,3.20
2018-01-11T05:23:42.798Z,3.80
2018-01-11T05:26:09.489Z,3.67
2018-01-11T05:28:36.208Z,4.00
2018-01-11T05:31:02.892Z,4.10
2018-01-11T05:33:29.625Z,4.10
2018-01-11T05:35:56.348Z,4.00
2018-01-11T05:38:23.117Z,4.17
2018-01-11T05:40:49.907Z,5.10
2018-01-11T05:43:16.600Z,4.57
2018-01-11T05:45:43.340Z,4.40
2018-01-11T05:48:10.025Z,4.30
2018-01-11T05:50:36.705Z,4.90
2018-01-11T05:53:03.453Z,4.37
2018-01-11T05:55:30.183Z,4.37
2018-01-11T05:57:57.111Z,4.80
2018-01-11T06:00:23.813Z,4.17
2018-01-11T06:02:50.661Z,5.27
2018-01-11T06:05:18.160Z,5.37
2018-01-11T06:07:45.541Z,5.07
2018-01-11T06:10:12.365Z,5.10
2018-01-11T06:12:40.073Z,5.93
2018-01-11T06:15:06.934Z,5.73
2018-01-11T06:17:33.601Z,5.43
2018-01-11T06:20:00.275Z,4.77
2018-01-11T06:22:27.003Z,4.50
2018-01-11T06:24:53.696Z,4.77
2018-01-11T06:27:20.477Z,4.27
2018-01-11T06:29:47.169Z,4.67
2018-01-11T06:32:13.889Z,5.50
2018-01-11T06:34:41.583Z,4.80
2018-01-11T06:37:08.285Z,4.23
2018-01-11T06:39:34.990Z,3.80
2018-01-11T06:42:01.673Z,3.87
2018-01-11T06:44:28.437Z,4.03
2018-01-11T06:46:55.172Z,4.73
2018-01-11T06:49:21.939Z,4.03
2018-01-11T06:51:48.635Z,4.30
2018-01-11T06:54:15.331Z,4.20
2018-01-11T06:56:42.058Z,4.00
2018-01-11T06:59:08.725Z,3.40
2018-01-11T07:01:35.428Z,3.70
2018-01-11T07:04:02.108Z,4.03
2018-01-11T07:06:29.635Z,4.20
2018-01-11T07:08:56.366Z,3.77
2018-01-11T07:11:23.038Z,4.13
2018-01-11T07:13:49.746Z,3.83
2018-01-11T07:16:16.447Z,4.07
2018-01-11T07:18:43.141Z,3.70
2018-01-11T07:21:10.181Z,3.63
2018-01-11T07:23:36.851Z,4.23
2018-01-11T07:26:03.597Z,3.67
2018-01-11T07:28:30.312Z,4.30
2018-01-11T07:30:57.038Z,3.93
2018-01-11T07:33:23.730Z,3.97
2018-01-11T07:35:50.435Z,3.90
2018-01-11T07:38:17.155Z,4.10
2018-01-11T07:40:43.848Z,3.87
2018-01-11T07:43:10.535Z,3.67
2018-01-11T07:45:37.351Z,3.77
2018-01-11T07:48:04.050Z,3.83
2018-01-11T07:50:30.772Z,4.17
2018-01-11T07:52:57.477Z,4.53
2018-01-11T07:55:24.154Z,3.87
2018-01-11T07:57:50.863Z,3.97
2018-01-11T08:00:17.722Z,3.60
2018-01-11T08:02:44.455Z,4.50
2018-01-11T08:05:11.176Z,4.57
2018-01-11T08:07:37.912Z,4.23
2018-01-11T08:10:04.617Z,4.67
2018-01-11T08:12:31.391Z,4.80
2018-01-11T08:14:58.112Z,4.57
2018-01-11T08:17:25.354Z,5.17
2018-01-11T08:19:52.143Z,4.73
2018-01-11T08:22:18.841Z,4.60
2018-01-11T08:24:45.569Z,5.13
2018-01-11T08:27:12.339Z,5.23
2018-01-11T08:29:39.067Z,5.87
2018-01-11T08:32:05.805Z,5.63
2018-01-11T08:34:32.550Z,6.20
2018-01-11T08:36:59.234Z,5.70
2018-01-11T08:39:25.953Z,5.80
2018-01-11T08:41:52.689Z,5.00
2018-01-11T08:44:19.401Z,5.40
2018-01-11T08:46:46.099Z,5.50
2018-01-11T08:49:14.956Z,7.03
2018-01-11T08:51:41.696Z,6.80
2018-01-11T08:54:09.157Z,6.87
2018-01-11T08:56:36.022Z,5.50
2018-01-11T08:59:02.730Z,5.40
2018-01-11T09:01:29.474Z,6.37
2018-01-11T09:03:56.301Z,6.53
2018-01-11T09:06:23.063Z,6.20
2018-01-11T09:08:49.798Z,5.73
2018-01-11T09:11:16.500Z,5.73
2018-01-11T09:13:43.208Z,5.90
2018-01-11T09:16:09.875Z,5.80
2018-01-11T09:18:36.563Z,5.80
2018-01-11T09:21:03.281Z,5.60
2018-01-11T09:23:30.001Z,6.47
2018-01-11T09:25:56.689Z,6.63
2018-01-11T09:28:23.457Z,5.97
2018-01-11T09:30:50.161Z,5.53
2018-01-11T09:33:16.835Z,6.43
2018-01-11T09:35:43.572Z,5.93
2018-01-11T09:38:10.271Z,5.73
2018-01-11T09:40:36.976Z,6.53
2018-01-11T09:43:03.733Z,7.10
2018-01-11T09:45:30.502Z,6.63
2018-01-11T09:47:57.195Z,6.20
2018-01-11T09:50:23.976Z,6.67
2018-01-11T09:52:50.762Z,6.10
2018-01-11T09:55:17.484Z,7.00
2018-01-11T09:57:44.177Z,7.33
2018-01-11T10:00:10.869Z,6.33
2018-01-11T10:02:37.606Z,5.83
2018-01-11T10:05:04.312Z,6.07
2018-01-11T10:07:30.997Z,5.23
2018-01-11T10:09:57.712Z,6.30
2018-01-11T10:12:24.378Z,6.40
2018-01-11T10:14:51.068Z,6.30
2018-01-11T10:17:17.747Z,6.33
2018-01-11T10:19:44.452Z,6.83
2018-01-11T10:22:11.132Z,7.27
2018-01-11T10:24:37.831Z,7.40
2018-01-11T10:27:04.505Z,6.87
2018-01-11T10:29:31.238Z,7.47
2018-01-11T10:31:57.978Z,8.07
2018-01-11T10:34:24.662Z,7.57
2018-01-11T10:36:51.450Z,8.10
2018-01-11T10:39:18.136Z,7.40
2018-01-11T10:41:44.805Z,7.07
2018-01-11T10:44:11.570Z,6.87
2018-01-11T10:46:38.561Z,7.07
2018-01-11T10:49:05.271Z,7.10
2018-01-11T10:51:31.948Z,7.47
2018-01-11T10:53:58.648Z,7.20
2018-01-11T10:56:25.342Z,7.93
2018-01-11T10:58:52.018Z,7.80
2018-01-11T11:01:24.298Z,7.50
2018-01-11T11:03:51.036Z,6.43
2018-01-11T11:06:17.780Z,7.20
2018-01-11T11:08:44.488Z,6.90
2018-01-11T11:11:11.161Z,6.73
2018-01-11T11:13:38.506Z,6.33
2018-01-11T11:16:05.198Z,7.07
2018-01-11T11:18:31.913Z,6.50
2018-01-11T11:20:58.641Z,7.73
2018-01-11T11:23:25.371Z,7.10
2018-01-11T11:25:52.071Z,7.07
2018-01-11T11:28:18.861Z,7.03
2018-01-11T11:30:45.602Z,6.50
2018-01-11T11:33:12.286Z,6.97
2018-01-11T11:35:39.114Z,6.60
2018-01-11T11:38:05.973Z,6.30
2018-01-11T11:40:32.643Z,6.60
2018-01-11T11:42:59.360Z,7.93
2018-01-11T11:45:26.048Z,7.20
2018-01-11T11:47:52.761Z,7.63
2018-01-11T11:50:19.450Z,7.30
2018-01-11T11:52:46.157Z,7.60
2018-01-11T11:55:12.883Z,7.40
2018-01-11T11:57:39.624Z,7.80
2018-01-11T12:00:06.342Z,7.47
2018-01-11T12:02:33.064Z,7.10
2018-01-11T12:04:59.760Z,6.57
2018-01-11T12:07:26.487Z,6.87
2018-01-11T12:09:53.434Z,6.40
2018-01-11T12:12:20.158Z,6.30
2018-01-11T12:14:46.837Z,5.43
2018-01-11T12:17:13.552Z,6.07
2018-01-11T12:19:40.274Z,6.50
2018-01-11T12:22:07.005Z,5.80
2018-01-11T12:24:33.777Z,7.20
2018-01-11T12:27:00.863Z,6.73
2018-01-11T12:29:27.553Z,7.13
2018-01-11T12:31:54.272Z,6.57
2018-01-11T12:34:20.955Z,6.00
2018-01-11T12:36:47.667Z,6.80
2018-01-11T12:39:14.358Z,6.67
2018-01-11T12:41:41.085Z,7.10
2018-01-11T12:44:07.767Z,6.90
2018-01-11T12:46:34.520Z,6.93
2018-01-11T12:49:01.201Z,7.20
2018-01-11T12:51:27.913Z,7.33
2018-01-11T12:53:54.620Z,7.40
2018-01-11T12:56:21.324Z,7.30
2018-01-11T12:58:48.003Z,7.67
2018-01-11T13:01:14.687Z,6.83
2018-01-11T13:03:41.377Z,6.37
2018-01-11T13:06:08.082Z,7.00
2018-01-11T13:08:34.821Z,7.10
2018-01-11T13:11:01.561Z,7.60
2018-01-11T13:13:28.246Z,6.13
2018-01-11T13:15:54.938Z,7.47
2018-01-11T13:18:21.637Z,8.03
2018-01-11T13:20:48.474Z,7.90
2018-01-11T13:23:15.216Z,8.20
2018-01-11T13:25:42.003Z,8.27
2018-01-11T13:28:08.701Z,7.73
2018-01-11T13:30:35.478Z,8.10
2018-01-11T13:33:02.192Z,7.97
2018-01-11T13:35:28.872Z,8.77
2018-01-11T13:37:55.566Z,9.30
2018-01-11T13:40:22.278Z,8.80
2018-01-11T13:42:48.994Z,8.07
2018-01-11T13:45:15.688Z,8.97
2018-01-11T13:47:42.400Z,8.10
2018-01-11T13:50:09.116Z,8.17
2018-01-11T13:52:35.786Z,8.07
2018-01-11T13:55:02.597Z,7.30
2018-01-11T13:57:29.294Z,8.07
2018-01-11T13:59:56.013Z,8.37
2018-01-11T14:02:22.706Z,7.40
2018-01-11T14:04:49.417Z,7.57
2018-01-11T14:07:16.355Z,8.13
2018-01-11T14:09:43.133Z,10.43
2018-01-11T14:12:09.835Z,8.37
2018-01-11T14:14:36.532Z,8.00
2018-01-11T14:17:03.247Z,7.77
2018-01-11T14:19:29.952Z,7.77
2018-01-11T14:21:56.666Z,7.43
2018-01-11T14:24:23.406Z,7.77
2018-01-11T14:26:50.167Z,7.77
2018-01-11T14:29:16.892Z,8.50
2018-01-11T14:31:43.598Z,8.90
2018-01-11T14:34:10.301Z,9.90
2018-01-11T14:36:36.991Z,8.50
2018-01-11T14:39:03.715Z,8.97
2018-01-11T14:41:30.400Z,8.50
2018-01-11T14:43:57.145Z,8.90
2018-01-11T14:46:23.901Z,9.03
2018-01-11T14:48:50.613Z,9.00
2018-01-11T14:51:17.287Z,9.20
2018-01-11T14:53:44.095Z,8.50
2018-01-11T14:56:10.790Z,9.93
2018-01-11T14:58:37.539Z,9.67
2018-01-11T15:01:04.221Z,9.60
2018-01-11T15:03:30.961Z,9.17
2018-01-11T15:05:57.669Z,9.50
2018-01-11T15:08:24.360Z,9.80
2018-01-11T15:10:51.140Z,9.40
2018-01-11T15:13:17.858Z,9.03
2018-01-11T15:15:44.612Z,10.70
2018-01-11T15:18:11.378Z,10.20
2018-01-11T15:20:38.065Z,11.50
2018-01-11T15:23:04.777Z,10.60
2018-01-11T15:25:31.493Z,10.47
2018-01-11T15:27:58.245Z,10.57
2018-01-11T15:30:24.994Z,10.50
2018-01-11T15:32:51.695Z,10.17
2018-01-11T15:35:18.649Z,10.63
2018-01-11T15:37:45.555Z,10.80
2018-01-11T15:40:12.331Z,11.27
2018-01-11T15:42:39.150Z,12.03
2018-01-11T15:45:05.862Z,11.30
2018-01-11T15:47:32.604Z,11.43
2018-01-11T15:49:59.290Z,11.97
2018-01-11T15:52:25.990Z,11.20
2018-01-11T15:54:52.708Z,11.70
2018-01-11T15:57:19.439Z,10.90
2018-01-11T15:59:46.777Z,11.67
2018-01-11T16:02:13.479Z,11.50
2018-01-11T16:04:40.243Z,11.40
2018-01-11T16:07:07.225Z,11.80
2018-01-11T16:09:33.948Z,13.10
2018-01-11T16:12:00.686Z,13.50
2018-01-11T16:14:27.381Z,12.93
2018-01-11T16:16:54.099Z,12.07
2018-01-11T16:19:20.781Z,12.23
2018-01-11T16:21:47.462Z,12.17
2018-01-11T16:24:14.241Z,13.30
2018-01-11T16:26:40.928Z,13.10
2018-01-11T16:29:07.672Z,12.63
2018-01-11T16:31:34.395Z,14.70
2018-01-11T16:34:01.120Z,13.27
2018-01-11T16:36:27.838Z,14.00
2018-01-11T16:38:54.557Z,13.03
2018-01-11T16:41:21.332Z,13.47
2018-01-11T16:43:48.048Z,13.50
2018-01-11T16:46:14.774Z,13.60
2018-01-11T16:48:41.566Z,13.83
2018-01-11T16:51:08.291Z,14.10
2018-01-11T16:53:35.047Z,13.87
2018-01-11T16:56:01.810Z,14.93
2018-01-11T16:58:28.740Z,14.17
2018-01-11T17:00:55.558Z,15.07
2018-01-11T17:03:22.244Z,14.17
2018-01-11T17:05:48.972Z,14.70
2018-01-11T17:08:15.700Z,13.90
2018-01-11T17:10:42.514Z,13.80
2018-01-11T17:13:09.246Z,14.00
2018-01-11T17:15:35.946Z,14.37
2018-01-11T17:18:04.462Z,13.60
2018-01-11T17:20:31.175Z,14.03
2018-01-11T17:22:57.897Z,14.00
2018-01-11T17:25:24.610Z,14.10
2018-01-11T17:27:51.526Z,15.10
2018-01-11T17:30:18.230Z,15.73
2018-01-11T17:32:44.987Z,15.43
2018-01-11T17:35:11.685Z,15.00
2018-01-11T17:37:38.385Z,14.87
2018-01-11T17:40:05.266Z,14.60
2018-01-11T17:42:32.125Z,15.70
2018-01-11T17:44:58.906Z,14.90
2018-01-11T17:47:25.695Z,13.97
2018-01-11T17:49:52.428Z,14.20
2018-01-11T17:52:19.127Z,15.53
2018-01-11T17:54:45.852Z,14.13
2018-01-11T17:57:12.664Z,15.57
2018-01-11T17:59:39.379Z,15.07
2018-01-11T18:02:06.117Z,14.37
2018-01-11T18:04:32.907Z,13.70
2018-01-11T18:06:59.620Z,15.10
2018-01-11T18:09:33.333Z,14.00
2018-01-11T18:12:00.112Z,14.70
2018-01-11T18:14:26.876Z,16.07
2018-01-11T18:16:53.635Z,18.07
2018-01-11T18:19:20.417Z,15.90
2018-01-11T18:21:47.269Z,15.00
2018-01-11T18:24:14.085Z,14.90
2018-01-11T18:26:40.832Z,14.33
2018-01-11T18:29:07.627Z,15.97
2018-01-11T18:31:34.395Z,14.60
2018-01-11T18:34:01.120Z,16.77
2018-01-11T18:36:27.966Z,16.40
2018-01-11T18:38:54.679Z,15.37
2018-01-11T18:41:21.447Z,16.00
2018-01-11T18:43:48.204Z,15.33
2018-01-11T18:46:14.973Z,16.07
2018-01-11T18:48:41.648Z,16.20
2018-01-11T18:51:08.349Z,15.10
2018-01-11T18:53:35.176Z,15.20
2018-01-11T18:56:01.899Z,15.90
2018-01-11T18:58:29.190Z,15.83
2018-01-11T19:00:55.887Z,18.63
2018-01-11T19:03:22.634Z,18.67
2018-01-11T19:05:49.355Z,19.10
2018-01-11T19:08:16.035Z,19.67
2018-01-11T19:10:42.775Z,18.53
2018-01-11T19:13:09.476Z,19.63
2018-01-11T19:15:37.162Z,20.00
2018-01-11T19:18:04.073Z,18.23
2018-01-11T19:20:30.825Z,20.40
2018-01-11T19:22:57.569Z,19.53
2018-01-11T19:25:24.285Z,20.30
2018-01-11T19:27:51.020Z,18.63
2018-01-11T19:30:17.818Z,17.00
2018-01-11T19:32:44.560Z,16.50
2018-01-11T19:35:11.489Z,17.30
2018-01-11T19:37:38.244Z,17.00
2018-01-11T19:40:04.983Z,19.80
2018-01-11T19:42:31.692Z,19.20
2018-01-11T19:44:58.458Z,17.43
2018-01-11T19:47:25.208Z,19.50
2018-01-11T19:49:52.083Z,19.57
2018-01-11T19:52:18.794Z,19.13
2018-01-11T19:54:45.489Z,18.70
2018-01-11T19:57:12.272Z,19.93
2018-01-11T19:59:39.235Z,19.60
2018-01-11T20:02:05.953Z,18.33
2018-01-11T20:04:32.741Z,19.30
2018-01-11T20:06:59.563Z,17.23
2018-01-11T20:09:26.283Z,17.67
2018-01-11T20:11:53.041Z,18.30
2018-01-11T20:14:19.757Z,18.60
2018-01-11T20:16:46.458Z,18.13
2018-01-11T20:19:13.272Z,18.03
2018-01-11T20:21:40.012Z,18.30
2018-01-11T20:24:06.782Z,17.47
2018-01-11T20:26:33.614Z,17.90
2018-01-11T20:29:00.365Z,17.33
2018-01-11T20:31:27.989Z,17.63
2018-01-11T20:33:54.705Z,17.13
2018-01-11T20:36:21.455Z,16.87
2018-01-11T20:38:48.444Z,17.40
2018-01-11T20:41:15.129Z,18.87
2018-01-11T20:43:41.947Z,19.27
2018-01-11T20:46:08.886Z,17.77
2018-01-11T20:48:35.614Z,19.10
2018-01-11T20:51:02.354Z,19.00
2018-01-11T20:53:29.082Z,19.50
2018-01-11T20:55:55.819Z,20.03
2018-01-11T20:58:22.529Z,19.57
2018-01-11T21:00:49.240Z,20.07
2018-01-11T21:03:15.999Z,20.50
2018-01-11T21:05:42.741Z,21.37
2018-01-11T21:08:09.626Z,19.30
2018-01-11T21:10:36.390Z,19.77
2018-01-11T21:13:03.148Z,21.27
2018-01-11T21:15:29.870Z,21.27
2018-01-11T21:17:56.568Z,21.23
2018-01-11T21:20:23.302Z,20.00
2018-01-11T21:22:49.986Z,21.80
2018-01-11T21:25:16.753Z,22.30
2018-01-11T21:27:43.549Z,22.47
2018-01-11T21:30:10.265Z,23.33
2018-01-11T21:32:37.115Z,22.50
2018-01-11T21:35:03.819Z,21.87
2018-01-11T21:37:30.528Z,22.00
2018-01-11T21:39:57.242Z,21.83
2018-01-11T21:42:23.941Z,22.67
2018-01-11T21:44:50.756Z,23.10
2018-01-11T21:47:17.458Z,26.03
2018-01-11T21:49:44.238Z,26.90
2018-01-11T21:52:10.949Z,22.87
2018-01-11T21:54:38.023Z,22.23
2018-01-11T21:57:04.783Z,23.20
2018-01-11T21:59:31.511Z,23.43
2018-01-11T22:01:58.583Z,22.60
2018-01-11T22:04:25.288Z,21.60
2018-01-11T22:06:52.201Z,21.67
2018-01-11T22:09:18.928Z,22.43
2018-01-11T22:11:45.612Z,21.33
2018-01-11T22:14:12.331Z,21.60
2018-01-11T22:16:39.024Z,22.93
2018-01-11T22:19:05.745Z,22.70
2018-01-11T22:21:32.486Z,21.50
2018-01-11T22:23:59.305Z,21.53
2018-01-11T22:26:26.029Z,20.60
2018-01-11T22:28:52.761Z,21.57
2018-01-11T22:31:19.492Z,21.43
2018-01-11T22:33:46.215Z,20.60
2018-01-11T22:36:12.951Z,21.57
2018-01-11T22:38:39.662Z,21.77
2018-01-11T22:41:06.405Z,20.63
2018-01-11T22:43:33.154Z,22.00
2018-01-11T22:45:59.868Z,21.63
2018-01-11T22:48:26.561Z,20.80
2018-01-11T22:50:53.306Z,20.83
2018-01-11T22:53:20.024Z,19.47
2018-01-11T22:55:46.776Z,22.70
2018-01-11T22:58:13.538Z,22.73
2018-01-11T23:00:40.268Z,20.90
2018-01-11T23:03:06.973Z,21.73
2018-01-11T23:05:33.684Z,21.77
2018-01-11T23:08:00.476Z,21.33
2018-01-11T23:10:27.216Z,19.70
2018-01-11T23:12:53.953Z,21.40
2018-01-11T23:15:20.659Z,22.20
2018-01-11T23:17:47.402Z,20.63
2018-01-11T23:20:14.201Z,21.17
2018-01-11T23:22:41.893Z,20.70
2018-01-11T23:25:08.659Z,21.60
2018-01-11T23:27:35.402Z,21.07
2018-01-11T23:30:02.109Z,21.50
2018-01-11T23:32:28.799Z,21.03
2018-01-11T23:34:55.498Z,20.67
2018-01-11T23:37:22.189Z,21.20
2018-01-11T23:39:48.920Z,21.50
2018-01-11T23:42:15.627Z,19.93
2018-01-11T23:44:42.377Z,21.40
2018-01-11T23:47:09.110Z,23.37
2018-01-11T23:49:35.839Z,20.73
2018-01-11T23:52:02.549Z,22.27
2018-01-11T23:54:29.258Z,21.30
2018-01-11T23:56:56.006Z,21.53
2018-01-11T23:59:22.763Z,20.63
